Time;durP1;ratioP1;P1;durP2;ratioP2;P2;SDS_P1;SDS_P2;PMS_P1;PMS_P2;Temp;Humidity;BMP_temperature;BMP_pressure;BME280_temperature;BME280_humidity;BME280_pressure;Samples;Min_cycle;Max_cycle;Signal;HPM_P1;HPM_P2
2023/08/09 00:00:19;;;;;;;2.70;1.60;;;;;;;18.30;55.45;94902.28;5009651;28;20230;-90
2023/08/09 00:02:54;;;;;;;1.35;1.25;;;;;;;18.33;55.17;94901.03;5008510;28;20706;-90
2023/08/09 00:05:20;;;;;;;1.98;1.58;;;;;;;18.28;55.35;94907.75;5004515;28;20210;-90
2023/08/09 00:07:58;;;;;;;1.75;1.65;;;;;;;18.23;55.49;94915.50;5009396;28;20229;-90
2023/08/09 00:10:27;;;;;;;1.50;1.40;;;;;;;18.26;55.27;94911.63;5017083;28;20305;-90
2023/08/09 00:12:56;;;;;;;2.80;1.63;;;;;;;18.22;55.52;94911.31;5011110;28;20202;-89
2023/08/09 00:15:22;;;;;;;1.50;1.40;;;;;;;18.19;55.60;94918.81;5008317;28;20207;-90
2023/08/09 00:17:48;;;;;;;2.88;1.52;;;;;;;18.16;56.11;94938.34;5006634;28;20204;-90
2023/08/09 00:20:15;;;;;;;1.70;1.60;;;;;;;18.14;56.19;94932.56;5009273;28;20223;-89
2023/08/09 00:22:42;;;;;;;1.63;1.52;;;;;;;18.10;56.09;94934.06;5008847;28;20627;-89
2023/08/09 00:25:11;;;;;;;2.22;1.40;;;;;;;18.16;55.80;94925.31;5009252;28;20203;-90
2023/08/09 00:27:38;;;;;;;1.40;1.30;;;;;;;18.16;55.83;94916.69;5009290;28;20292;-90
2023/08/09 00:30:08;;;;;;;1.55;1.30;;;;;;;18.20;55.58;94910.78;5009037;28;20231;-89
2023/08/09 00:32:35;;;;;;;1.60;1.50;;;;;;;18.15;55.80;94915.13;5007823;28;20202;-89
2023/08/09 00:35:01;;;;;;;1.50;1.40;;;;;;;18.17;56.11;94926.09;5002745;28;20213;-89
2023/08/09 00:37:28;;;;;;;2.85;1.35;;;;;;;18.23;55.83;94912.13;5009169;28;20211;-90
2023/08/09 00:40:05;;;;;;;1.70;1.60;;;;;;;18.25;55.86;94923.09;5008867;28;20199;-90
2023/08/09 00:42:35;;;;;;;1.70;1.50;;;;;;;18.24;55.49;94918.91;5008373;28;20695;-89
2023/08/09 00:45:03;;;;;;;2.45;1.45;;;;;;;18.22;56.05;94929.56;5008391;28;20199;-90
2023/08/09 00:47:36;;;;;;;1.48;1.38;;;;;;;18.23;56.24;94919.94;5008170;28;20309;-89
2023/08/09 00:50:10;;;;;;;2.75;1.40;;;;;;;18.25;56.09;94923.09;5007377;28;20254;-89
2023/08/09 00:52:37;;;;;;;1.90;1.60;;;;;;;18.26;55.99;94920.25;5008235;28;20297;-89
2023/08/09 00:55:04;;;;;;;1.83;1.73;;;;;;;18.25;56.16;94928.31;5008373;28;20293;-89
2023/08/09 01:00:13;;;;;;;1.52;1.42;;;;;;;18.29;56.14;94931.97;4989451;28;20301;-89
2023/08/09 01:02:41;;;;;;;1.63;1.52;;;;;;;18.27;56.14;94929.63;5008234;28;20278;-89
2023/08/09 01:05:08;;;;;;;1.70;1.60;;;;;;;18.32;56.20;94931.50;5006861;28;20696;-89
2023/08/09 01:07:41;;;;;;;1.52;1.35;;;;;;;18.33;55.99;94933.09;5016424;28;20222;-90
2023/08/09 01:10:14;;;;;;;1.92;1.40;;;;;;;18.32;56.17;94931.50;5015066;28;20226;-89
2023/08/09 01:12:43;;;;;;;2.35;1.58;;;;;;;18.37;55.96;94930.78;5012426;28;20195;-89
2023/08/09 01:15:12;;;;;;;2.55;1.50;;;;;;;18.36;56.47;94940.44;5012164;28;20286;-90
2023/08/09 01:17:42;;;;;;;1.83;1.67;;;;;;;18.40;56.38;94935.53;5012295;28;20198;-89
2023/08/09 01:20:32;;;;;;;1.38;1.27;;;;;;;18.41;56.44;94942.31;5012563;28;20226;-89
2023/08/09 01:23:02;;;;;;;1.52;1.23;;;;;;;18.42;56.25;94936.88;5010754;28;20195;-90
2023/08/09 01:25:31;;;;;;;1.30;1.20;;;;;;;18.42;56.60;94946.50;5012399;28;20238;-89
2023/08/09 01:27:58;;;;;;;2.50;1.50;;;;;;;18.38;56.08;94945.41;4998430;28;20273;-89
2023/08/09 01:30:30;;;;;;;4.85;1.50;;;;;;;18.40;56.18;94941.53;4992859;28;20761;-89
2023/08/09 01:32:58;;;;;;;1.40;1.30;;;;;;;18.45;56.20;94951.25;5011396;28;20726;-89
2023/08/09 01:35:29;;;;;;;1.23;1.10;;;;;;;18.43;56.31;94953.31;5011821;28;20711;-89
2023/08/09 01:38:03;;;;;;;1.55;1.42;;;;;;;18.43;56.49;94950.69;5012271;28;20205;-89
2023/08/09 01:40:32;;;;;;;1.75;1.50;;;;;;;18.42;56.11;94941.28;5010160;28;20230;-89
2023/08/09 01:43:00;;;;;;;2.88;1.50;;;;;;;18.43;56.25;94942.88;5011582;28;20676;-90
2023/08/09 01:45:27;;;;;;;2.03;1.42;;;;;;;18.42;56.25;94938.69;5011835;28;20206;-88
2023/08/09 01:47:55;;;;;;;1.52;1.30;;;;;;;18.40;55.94;94936.31;5010253;28;20238;-89
2023/08/09 01:50:24;;;;;;;1.45;1.27;;;;;;;18.40;56.28;94944.13;5011956;28;20595;-89
2023/08/09 01:52:55;;;;;;;1.77;1.23;;;;;;;18.39;56.54;94936.56;5011627;28;20198;-90
2023/08/09 01:55:22;;;;;;;2.15;1.60;;;;;;;18.42;56.25;94929.06;5009866;28;20203;-89
2023/08/09 01:57:56;;;;;;;1.48;1.38;;;;;;;18.43;56.18;94928.03;5011455;28;20265;-89
2023/08/09 02:00:23;;;;;;;3.08;1.40;;;;;;;18.44;56.35;94921.00;5011613;28;20230;-89
2023/08/09 02:02:51;;;;;;;2.85;1.40;;;;;;;18.40;56.31;94928.50;5014516;28;20203;-89
2023/08/09 02:05:18;;;;;;;2.55;1.45;;;;;;;18.47;56.56;94933.56;5013618;28;20306;-90
2023/08/09 02:07:45;;;;;;;1.42;1.30;;;;;;;18.48;56.63;94933.28;5011462;28;20227;-91
2023/08/09 02:10:20;;;;;;;1.40;1.30;;;;;;;18.42;56.64;94944.69;5011575;28;20329;-89
2023/08/09 02:12:57;;;;;;;1.63;1.40;;;;;;;18.39;56.60;94936.56;5009719;28;20202;-90
2023/08/09 02:15:27;;;;;;;1.55;1.40;;;;;;;18.42;56.85;94947.28;5011273;28;20202;-89
2023/08/09 02:17:57;;;;;;;1.90;1.52;;;;;;;18.36;57.27;94957.88;5011649;28;20736;-89
2023/08/09 02:20:25;;;;;;;1.50;1.40;;;;;;;18.39;57.22;94955.59;5011525;28;20227;-89
2023/08/09 02:22:51;;;;;;;1.83;1.40;;;;;;;18.40;57.20;94951.97;5010828;28;20199;-89
2023/08/09 02:25:18;;;;;;;3.10;1.33;;;;;;;18.39;57.07;94950.38;5011341;28;20218;-89
2023/08/09 02:27:46;;;;;;;2.10;1.20;;;;;;;18.37;57.21;94949.03;5008241;28;20222;-90
2023/08/09 02:30:13;;;;;;;2.28;1.23;;;;;;;18.35;57.62;94957.09;5004135;28;20325;-91
2023/08/09 02:32:52;;;;;;;1.80;1.70;;;;;;;18.35;57.61;94957.09;5010750;28;20703;-89
2023/08/09 02:35:33;;;;;;;3.60;1.25;;;;;;;18.37;57.89;94967.28;5010771;28;20198;-89
2023/08/09 02:38:00;;;;;;;1.38;1.20;;;;;;;18.38;57.65;94959.22;5011361;28;20199;-89
2023/08/09 02:40:26;;;;;;;2.80;1.40;;;;;;;18.40;57.95;94966.81;5010706;28;20222;-88
2023/08/09 02:42:53;;;;;;;1.40;1.30;;;;;;;18.42;58.17;94972.56;5008644;28;20574;-90
2023/08/09 02:45:22;;;;;;;1.67;1.40;;;;;;;18.41;58.37;94984.03;5008108;28;20210;-89
2023/08/09 02:47:49;;;;;;;3.45;1.60;;;;;;;18.39;58.75;95014.75;5009638;28;20226;-90
2023/08/09 02:50:16;;;;;;;1.40;1.30;;;;;;;18.42;59.35;95038.53;5011060;28;20237;-89
2023/08/09 02:52:42;;;;;;;3.05;1.30;;;;;;;18.40;60.65;95079.69;5010630;28;20195;-90
2023/08/09 02:55:15;;;;;;;2.45;1.90;;;;;;;18.38;61.30;95105.19;5010160;28;20202;-90
2023/08/09 02:57:47;;;;;;;1.85;1.58;;;;;;;18.35;62.20;95133.53;5010547;28;20206;-90
2023/08/09 03:00:21;;;;;;;1.83;1.50;;;;;;;18.28;64.24;95194.41;5014462;28;20222;-89
2023/08/09 03:02:49;;;;;;;4.03;1.50;;;;;;;18.26;63.18;95178.25;5014367;28;20199;-89
2023/08/09 03:05:26;;;;;;;1.55;1.45;;;;;;;18.24;63.44;95177.69;5010644;28;20195;-90
2023/08/09 03:07:57;;;;;;;1.70;1.60;;;;;;;18.20;63.31;95175.78;5010790;28;20222;-90
2023/08/09 03:10:28;;;;;;;1.60;1.40;;;;;;;18.17;63.55;95177.03;5010514;28;20226;-89
2023/08/09 03:13:02;;;;;;;1.88;1.38;;;;;;;18.19;63.37;95175.00;5010290;28;20787;-90
2023/08/09 03:15:42;;;;;;;2.00;1.77;;;;;;;18.16;63.51;95172.84;5007478;28;20202;-90
2023/08/09 03:18:17;;;;;;;1.65;1.50;;;;;;;18.16;63.99;95193.69;4999502;28;20728;-90
2023/08/09 03:20:47;;;;;;;3.15;1.70;;;;;;;18.16;63.72;95179.88;4990649;28;20231;-89
2023/08/09 03:23:20;;;;;;;4.25;1.77;;;;;;;18.13;64.08;95181.13;5000780;28;20206;-90
2023/08/09 03:25:55;;;;;;;3.22;1.70;;;;;;;18.15;64.46;95206.94;5009736;28;20253;-89
2023/08/09 03:28:29;;;;;;;1.70;1.60;;;;;;;18.13;65.34;95228.03;5009452;28;20226;-89
2023/08/09 03:30:56;;;;;;;2.25;1.85;;;;;;;18.13;65.43;95232.44;5009995;28;20268;-90
2023/08/09 03:33:23;;;;;;;1.50;1.30;;;;;;;18.13;65.42;95240.25;5008157;28;20230;-89
2023/08/09 03:36:06;;;;;;;1.67;1.58;;;;;;;18.12;66.48;95260.31;5009359;28;20210;-89
2023/08/09 03:38:34;;;;;;;2.20;1.58;;;;;;;18.11;65.67;95243.09;5009562;28;20202;-90
2023/08/09 03:41:03;;;;;;;1.70;1.60;;;;;;;18.10;65.77;95253.75;5010540;28;20229;-89
2023/08/09 03:43:30;;;;;;;1.60;1.50;;;;;;;18.04;66.16;95257.28;5009251;28;20229;-89
2023/08/09 03:45:57;;;;;;;2.58;1.20;;;;;;;18.00;65.79;95256.16;5009335;28;20199;-89
2023/08/09 03:48:23;;;;;;;2.20;1.75;;;;;;;17.92;66.25;95267.72;5006651;28;20234;-90
2023/08/09 03:50:51;;;;;;;2.22;1.50;;;;;;;17.83;66.11;95271.72;5009388;28;20230;-89
2023/08/09 03:53:18;;;;;;;2.00;1.63;;;;;;;17.84;66.43;95273.31;5009817;28;20195;-89
2023/08/09 03:55:44;;;;;;;1.67;1.58;;;;;;;17.78;66.53;95280.22;5017138;28;20210;-90
2023/08/09 03:58:11;;;;;;;1.60;1.50;;;;;;;17.78;66.98;95308.06;5022943;28;20660;-90
2023/08/09 04:00:38;;;;;;;1.67;1.55;;;;;;;17.81;66.91;95305.00;5028989;28;20292;-90
2023/08/09 04:03:05;;;;;;;2.00;1.58;;;;;;;17.84;66.57;95289.72;5021372;28;20289;-90
2023/08/09 04:05:32;;;;;;;1.65;1.52;;;;;;;17.88;66.75;95301.28;5007493;28;20289;-90
2023/08/09 04:08:15;;;;;;;3.00;1.60;;;;;;;17.93;66.70;95300.56;5009652;28;20269;-89
2023/08/09 04:10:47;;;;;;;1.50;1.40;;;;;;;17.95;66.77;95299.31;5008494;28;20242;-90
2023/08/09 04:13:14;;;;;;;1.65;1.55;;;;;;;17.94;67.22;95320.38;5008910;28;20207;-90
2023/08/09 04:15:40;;;;;;;1.70;1.60;;;;;;;17.95;67.58;95325.38;5009057;28;20223;-89
2023/08/09 04:18:07;;;;;;;1.92;1.45;;;;;;;17.99;67.09;95310.06;5009072;28;20198;-90
2023/08/09 04:20:33;;;;;;;1.67;1.40;;;;;;;17.99;67.43;95327.53;5008193;23;20223;-89
2023/08/09 04:23:01;;;;;;;1.90;1.50;;;;;;;17.99;67.73;95338.75;4982817;28;20211;-90
2023/08/09 04:25:29;;;;;;;2.13;1.60;;;;;;;17.95;68.26;95356.63;4969949;28;20199;-91
2023/08/09 04:28:12;;;;;;;1.63;1.52;;;;;;;17.92;69.16;95380.53;4970128;28;20234;-89
2023/08/09 04:30:59;;;;;;;1.70;1.60;;;;;;;17.90;68.76;95374.75;4970512;28;20224;-89
2023/08/09 04:33:34;;;;;;;3.65;1.70;;;;;;;17.87;68.72;95375.22;4979926;28;20217;-90
2023/08/09 04:36:04;;;;;;;2.00;1.48;;;;;;;17.87;69.58;95390.06;4987821;28;20199;-90
2023/08/09 04:38:35;;;;;;;2.88;1.63;;;;;;;17.88;69.54;95399.47;4989363;28;20223;-90
2023/08/09 04:41:03;;;;;;;2.35;1.70;;;;;;;17.84;70.43;95427.75;4989452;28;20278;-89
2023/08/09 04:43:37;;;;;;;1.95;1.75;;;;;;;17.79;71.71;95439.88;4988792;28;20911;-90
2023/08/09 04:46:12;;;;;;;2.92;1.70;;;;;;;17.77;72.09;95458.31;4989113;28;20195;-90
2023/08/09 04:48:41;;;;;;;2.88;1.60;;;;;;;17.77;71.56;95450.50;4987445;28;20281;-90
2023/08/09 04:51:19;;;;;;;1.70;1.60;;;;;;;17.80;71.43;95449.25;5037557;23;20333;-89
2023/08/09 04:53:51;;;;;;;1.90;1.70;;;;;;;17.80;71.92;95451.88;5011222;28;20683;-90
2023/08/09 04:56:21;;;;;;;1.63;1.52;;;;;;;17.75;71.02;95426.50;4993679;28;20202;-90
2023/08/09 04:58:47;;;;;;;3.95;1.75;;;;;;;17.79;70.21;95414.63;4997157;28;20187;-87
2023/08/09 05:01:16;;;;;;;1.75;1.60;;;;;;;17.79;69.86;95406.00;5008667;28;20250;-88
2023/08/09 05:04:10;;;;;;;2.22;1.70;;;;;;;17.80;70.44;95412.81;5008328;28;20209;-87
2023/08/09 05:06:51;;;;;;;1.70;1.60;;;;;;;17.79;70.47;95419.03;4987876;28;20231;-88
2023/08/09 05:09:22;;;;;;;1.70;1.58;;;;;;;17.80;69.97;95400.56;4998706;28;20282;-87
2023/08/09 05:12:01;;;;;;;1.80;1.63;;;;;;;17.81;70.67;95420.41;5008422;28;20310;-87
2023/08/09 05:14:28;;;;;;;2.78;1.80;;;;;;;17.79;70.14;95413.81;5008934;28;20222;-86
2023/08/09 05:16:55;;;;;;;2.00;1.80;;;;;;;17.86;72.39;95466.63;5010379;28;20668;-91
2023/08/09 05:20:00;;;;;;;3.75;1.50;;;;;;;18.00;71.98;95469.78;5008521;28;20203;-88
2023/08/09 05:22:30;;;;;;;1.73;1.60;;;;;;;18.04;70.39;95421.44;4997789;28;20203;-88
2023/08/09 05:25:01;;;;;;;1.42;1.33;;;;;;;17.97;70.50;95431.94;5001023;28;20206;-87
2023/08/09 05:27:38;;;;;;;1.60;1.35;;;;;;;17.92;70.95;95442.25;4999662;28;22170;-88
2023/08/09 05:30:23;;;;;;;2.90;1.70;;;;;;;17.88;71.96;95475.78;4998786;28;20273;-88
2023/08/09 05:32:53;;;;;;;2.95;1.50;;;;;;;17.87;72.72;95502.06;4984650;28;20253;-87
2023/08/09 05:35:22;;;;;;;2.35;1.63;;;;;;;17.88;73.03;95511.47;4999041;28;20556;-87
2023/08/09 05:37:54;;;;;;;1.60;1.50;;;;;;;17.86;72.64;95503.06;4996629;28;20191;-87
2023/08/09 05:40:24;;;;;;;3.75;1.50;;;;;;;17.87;74.41;95552.34;5001191;28;20289;-88
2023/08/09 05:43:00;;;;;;;1.70;1.60;;;;;;;17.78;75.80;95582.31;5002251;28;20205;-87
2023/08/09 05:45:31;;;;;;;1.92;1.70;;;;;;;17.71;75.84;95562.56;5003857;28;20278;-89
2023/08/09 05:47:58;;;;;;;2.00;1.73;;;;;;;17.71;75.45;95567.78;4994099;28;20698;-88
2023/08/09 05:59:39;;;;;;;2.13;1.60;;;;;;;17.52;77.68;95596.44;4912276;28;20258;-88
2023/08/09 06:02:14;;;;;;;1.52;1.40;;;;;;;17.44;78.18;95599.34;4971144;28;20274;-88
2023/08/09 06:04:42;;;;;;;1.77;1.60;;;;;;;17.49;78.97;95612.50;4970689;28;20199;-86
2023/08/09 06:07:16;;;;;;;1.60;1.50;;;;;;;17.54;78.89;95622.25;4968634;28;20199;-87
2023/08/09 06:09:58;;;;;;;2.13;1.60;;;;;;;17.52;80.20;95640.69;4969752;28;20236;-87
2023/08/09 06:12:26;;;;;;;2.13;1.80;;;;;;;17.46;80.40;95643.38;4972802;28;20243;-88
2023/08/09 06:14:56;;;;;;;2.42;1.70;;;;;;;17.52;79.85;95635.47;4968223;28;20609;-87
2023/08/09 06:17:22;;;;;;;1.80;1.58;;;;;;;17.55;80.07;95649.88;4970943;28;20444;-87
2023/08/09 06:20:16;;;;;;;5.50;1.92;;;;;;;17.46;81.58;95666.81;4970905;28;20200;-88
2023/08/09 06:23:00;;;;;;;2.28;2.08;;;;;;;17.53;81.45;95670.13;4968322;28;20218;-87
2023/08/09 06:25:41;;;;;;;1.60;1.50;;;;;;;17.60;81.80;95674.25;4897068;29;20711;-87
2023/08/09 06:28:10;;;;;;;2.10;1.70;;;;;;;17.57;81.15;95668.69;4961590;28;20234;-88
2023/08/09 06:30:46;;;;;;;2.33;1.67;;;;;;;17.50;82.47;95692.22;4966414;28;20220;-87
2023/08/09 06:33:17;;;;;;;2.53;1.95;;;;;;;17.48;83.00;95707.25;4971446;28;20200;-88
2023/08/09 06:35:46;;;;;;;3.17;1.67;;;;;;;17.42;83.07;95710.69;4970798;28;20236;-87
2023/08/09 06:38:26;;;;;;;1.88;1.70;;;;;;;17.50;82.98;95710.44;4971721;28;20196;-91
2023/08/09 06:41:00;;;;;;;2.65;1.55;;;;;;;17.57;82.62;95712.94;4973500;28;20311;-90
2023/08/09 06:43:42;;;;;;;1.70;1.60;;;;;;;17.56;83.50;95722.56;4975008;28;20225;-90
2023/08/09 06:50:27;;;;;;;2.65;1.95;;;;;;;17.47;85.93;95765.53;4957446;28;20220;-91
2023/08/09 06:53:13;;;;;;;2.75;1.88;;;;;;;17.51;86.61;95769.28;4972597;28;20218;-91
2023/08/09 06:55:56;;;;;;;2.40;2.00;;;;;;;17.54;86.69;95761.03;4971132;28;20204;-91
2023/08/09 06:58:29;;;;;;;3.92;2.10;;;;;;;17.56;85.91;95766.81;4971621;28;20270;-90
2023/08/09 07:04:08;;;;;;;3.10;2.00;;;;;;;17.65;85.74;95751.75;4963073;28;20220;-90
2023/08/09 07:06:44;;;;;;;2.25;1.98;;;;;;;17.61;85.48;95750.56;4971248;28;20202;-91
2023/08/09 07:09:16;;;;;;;2.75;1.80;;;;;;;17.64;85.39;95752.78;4967773;28;20714;-92
2023/08/09 07:12:05;;;;;;;2.75;1.90;;;;;;;17.64;85.90;95763.19;4952542;28;20686;-90
2023/08/09 07:14:35;;;;;;;3.60;1.98;;;;;;;17.65;85.86;95756.97;4982129;28;20875;-89
2023/08/09 07:17:02;;;;;;;2.15;1.95;;;;;;;17.66;85.79;95763.78;4970332;28;20204;-91
2023/08/09 07:19:29;;;;;;;3.83;2.47;;;;;;;17.71;85.50;95748.28;4971615;28;20832;-90
2023/08/09 07:21:57;;;;;;;1.77;1.67;;;;;;;17.69;85.05;95742.50;4971688;28;20230;-90
2023/08/09 07:24:26;;;;;;;2.03;1.70;;;;;;;17.67;84.73;95739.31;4971184;28;20300;-90
2023/08/09 07:27:11;;;;;;;2.70;1.65;;;;;;;17.69;84.08;95733.91;4971122;28;20203;-90
2023/08/09 07:30:18;;;;;;;2.85;1.90;;;;;;;17.71;84.66;95740.47;4971130;28;20231;-90
2023/08/09 07:33:14;;;;;;;;;;;;;;;;;;;;;
2023/08/09 07:35:41;;;;;;;2.55;1.75;;;;;;;17.63;84.37;95748.53;4970992;28;20216;-90
2023/08/09 07:38:15;;;;;;;2.38;1.70;;;;;;;17.65;84.01;95737.94;4971366;28;20224;-90
2023/08/09 07:40:42;;;;;;;1.85;1.67;;;;;;;17.53;84.72;95759.44;4964663;28;20314;-90
2023/08/09 07:43:46;;;;;;;3.30;1.98;;;;;;;17.52;85.63;95765.66;4968318;28;20234;-90
2023/08/09 07:46:19;;;;;;;3.03;1.80;;;;;;;17.50;86.27;95780.72;4971005;28;20200;-91
2023/08/09 07:49:09;;;;;;;3.60;2.05;;;;;;;17.54;86.68;95779.25;4970132;28;20295;-91
2023/08/09 07:54:55;;;;;;;2.08;1.88;;;;;;;17.42;87.65;95786.19;4967801;28;20300;-90
2023/08/09 07:57:44;;;;;;;3.53;1.70;;;;;;;17.41;88.54;95805.41;4968707;28;20211;-91
2023/08/09 08:00:32;;;;;;;2.58;2.05;;;;;;;17.46;88.46;95802.19;4969651;28;20230;-90
2023/08/09 08:03:16;;;;;;;1.70;1.60;;;;;;;17.51;87.49;95794.53;4970037;28;20204;-91
2023/08/09 08:05:43;;;;;;;2.30;1.80;;;;;;;17.55;87.67;95796.47;4968089;28;20209;-91
2023/08/09 08:11:16;;;;;;;2.55;1.90;;;;;;;17.65;87.41;95796.03;4968701;28;20283;-90
2023/08/09 08:13:45;;;;;;;3.13;1.90;;;;;;;17.56;87.51;95799.88;4974294;28;20208;-90
2023/08/09 08:19:06;;;;;;;2.67;1.70;;;;;;;17.61;88.10;95813.84;4950566;28;20201;-90
2023/08/09 08:21:35;;;;;;;2.10;1.83;;;;;;;17.64;88.05;95806.63;4955318;28;20222;-90
2023/08/09 08:24:07;;;;;;;2.50;1.80;;;;;;;17.66;88.57;95808.03;4970395;28;20291;-90
2023/08/09 08:26:49;;;;;;;3.10;1.90;;;;;;;17.64;88.42;95806.63;4970125;28;20297;-90
2023/08/09 08:29:51;;;;;;;1.92;1.83;;;;;;;17.60;87.74;95795.84;4969556;28;20223;-90
2023/08/09 08:32:51;;;;;;;2.33;2.00;;;;;;;17.64;87.98;95794.44;4877091;28;20291;-90
2023/08/09 08:35:26;;;;;;;3.13;1.90;;;;;;;17.64;88.23;95798.81;4924628;29;20228;-90
2023/08/09 08:38:08;;;;;;;1.85;1.75;;;;;;;17.73;87.45;95792.31;4966261;28;20214;-90
2023/08/09 08:40:44;;;;;;;1.85;1.60;;;;;;;17.73;87.88;95787.91;4969072;28;20228;-90
2023/08/09 08:43:27;;;;;;;1.85;1.70;;;;;;;17.69;89.26;95820.63;4969150;28;20211;-90
2023/08/09 08:45:58;;;;;;;1.95;1.70;;;;;;;17.77;88.07;95804.72;4949874;29;20201;-90
2023/08/09 08:48:36;;;;;;;2.13;1.92;;;;;;;17.76;87.87;95795.31;4965041;28;20200;-90
2023/08/09 08:51:07;;;;;;;2.08;1.80;;;;;;;17.79;87.31;95794.88;4935950;28;1061524;-90
2023/08/09 08:53:34;;;;;;;2.05;1.75;;;;;;;17.76;87.85;95797.13;4981105;28;20640;-91
2023/08/09 08:56:06;;;;;;;2.75;1.90;;;;;;;17.79;86.96;95789.66;4967411;28;20673;-91
2023/08/09 08:58:40;;;;;;;4.45;1.90;;;;;;;17.71;86.89;95787.34;4970153;28;20200;-91
2023/08/09 09:01:09;;;;;;;2.33;2.13;;;;;;;17.71;87.52;95797.75;4969716;28;20286;-90
2023/08/09 09:03:41;;;;;;;2.03;1.75;;;;;;;17.71;87.31;95800.34;4969696;28;20204;-90
2023/08/09 09:06:19;;;;;;;1.80;1.70;;;;;;;17.61;87.61;95800.03;4969423;28;20732;-91
2023/08/09 09:08:46;;;;;;;2.55;1.80;;;;;;;17.56;88.25;95826.72;4969601;28;20596;-91
2023/08/09 09:11:26;;;;;;;;;;;;;;;;;;;;;
2023/08/09 09:14:22;;;;;;;3.35;2.13;;;;;;;17.69;90.24;95857.09;4971637;28;20273;-90
2023/08/09 09:16:53;;;;;;;2.55;1.90;;;;;;;17.72;90.58;95855.84;4969114;28;20204;-90
2023/08/09 09:19:22;;;;;;;1.73;1.63;;;;;;;17.71;90.31;95849.84;4969465;28;20215;-90
2023/08/09 09:21:49;;;;;;;2.67;2.05;;;;;;;17.78;89.57;95847.97;4969961;28;20231;-90
2023/08/09 09:24:18;;;;;;;3.08;1.80;;;;;;;17.73;90.48;95868.66;4969767;28;20690;-91
2023/08/09 09:27:01;;;;;;;2.67;2.15;;;;;;;17.79;90.25;95867.00;4971234;28;20226;-90
2023/08/09 09:29:33;;;;;;;3.78;2.20;;;;;;;17.87;92.00;95896.19;4972822;28;20310;-90
2023/08/09 09:32:20;;;;;;;2.13;2.03;;;;;;;17.92;92.27;95895.53;4973227;28;20922;-90
2023/08/09 09:34:54;;;;;;;2.25;1.92;;;;;;;17.80;94.28;95918.09;4964943;28;20204;-90
2023/08/09 09:37:39;;;;;;;2.75;2.17;;;;;;;17.73;94.94;95922.56;4973087;28;20238;-89
2023/08/09 09:40:10;;;;;;;1.92;1.83;;;;;;;17.70;96.09;95943.84;4972839;28;20193;-91
2023/08/09 09:42:39;;;;;;;3.72;2.08;;;;;;;17.59;96.81;95948.69;4971176;28;20200;-90
2023/08/09 09:45:28;;;;;;;2.78;2.00;;;;;;;17.62;97.70;95973.50;4972389;28;20207;-90
2023/08/09 09:47:58;;;;;;;2.20;2.00;;;;;;;17.54;99.14;95987.56;4971881;28;20215;-91
2023/08/09 09:50:38;;;;;;;2.60;1.90;;;;;;;17.51;99.43;95987.19;4972562;28;20220;-90
2023/08/09 09:53:05;;;;;;;2.40;2.20;;;;;;;17.56;99.46;95984.75;4972958;28;20207;-89
2023/08/09 09:55:33;;;;;;;2.97;2.10;;;;;;;17.83;97.91;95964.56;4972537;28;20231;-90
2023/08/09 09:58:00;;;;;;;2.67;2.00;;;;;;;17.93;97.21;95957.06;4973165;28;20210;-90
2023/08/09 10:00:44;;;;;;;3.65;1.88;;;;;;;18.02;96.74;95955.78;4971369;28;20224;-90
2023/08/09 10:03:13;;;;;;;2.67;2.00;;;;;;;18.13;96.49;95946.47;4972647;28;20206;-90
2023/08/09 10:05:59;;;;;;;2.67;2.13;;;;;;;18.19;96.37;95967.28;4972075;28;20189;-90
2023/08/09 10:08:28;;;;;;;2.75;2.13;;;;;;;18.20;96.24;95955.03;4972621;28;20192;-90
2023/08/09 10:11:29;;;;;;;4.43;2.20;;;;;;;18.19;98.04;95979.50;4971969;28;20250;-90
2023/08/09 10:14:11;;;;;;;3.22;2.20;;;;;;;18.07;98.51;95981.22;4987256;28;20199;-90
2023/08/09 10:16:51;;;;;;;3.30;2.78;;;;;;;18.10;96.78;95970.34;4971720;28;20211;-91
2023/08/09 10:19:39;;;;;;;2.50;2.30;;;;;;;18.10;97.07;95967.75;4973010;28;20204;-90
2023/08/09 10:25:12;;;;;;;2.60;2.20;;;;;;;17.98;95.27;95941.59;4971027;28;20561;-90
2023/08/09 10:30:47;;;;;;;2.58;1.90;;;;;;;17.95;97.87;95965.47;4959014;28;20312;-90
2023/08/09 10:33:24;;;;;;;2.50;2.30;;;;;;;17.94;98.10;95964.66;4969659;28;20208;-91
2023/08/09 10:36:05;;;;;;;2.38;2.17;;;;;;;17.89;98.58;95974.16;4970963;28;20621;-90
2023/08/09 10:38:40;;;;;;;4.47;2.30;;;;;;;18.06;98.86;95974.41;4971909;28;20287;-90
2023/08/09 10:41:15;;;;;;;2.47;2.05;;;;;;;17.94;99.10;95971.69;4972172;28;20235;-90
2023/08/09 10:43:43;;;;;;;2.10;1.90;;;;;;;18.02;99.49;95965.41;4971955;28;20207;-91
2023/08/09 10:46:21;;;;;;;3.28;1.92;;;;;;;17.98;96.71;95936.38;4971901;28;20196;-90
2023/08/09 10:48:54;;;;;;;2.30;2.10;;;;;;;18.08;97.17;95939.31;4969410;28;20232;-90
2023/08/09 10:51:24;;;;;;;2.50;2.30;;;;;;;18.02;97.26;95941.97;4971347;28;20287;-90
2023/08/09 10:53:58;;;;;;;2.00;1.80;;;;;;;18.11;93.87;95897.16;4971849;28;20210;-89
2023/08/09 10:56:32;;;;;;;1.98;1.80;;;;;;;18.28;91.92;95863.50;4970619;28;20287;-90
2023/08/09 10:59:13;;;;;;;2.83;1.90;;;;;;;18.46;92.16;95865.34;4971755;28;20208;-89
2023/08/09 11:01:42;;;;;;;2.33;1.80;;;;;;;18.62;90.30;95839.47;4971619;28;20633;-90
2023/08/09 11:04:12;;;;;;;2.08;1.67;;;;;;;18.62;87.29;95781.31;4969799;28;20212;-90
2023/08/09 11:06:52;;;;;;;1.80;1.70;;;;;;;18.77;89.08;95807.78;4971955;28;20634;-90
2023/08/09 11:09:21;;;;;;;1.88;1.77;;;;;;;18.71;87.26;95782.56;4971879;28;20224;-90
2023/08/09 11:11:49;;;;;;;2.13;1.83;;;;;;;18.79;85.84;95752.75;4972216;28;20271;-90
2023/08/09 11:14:24;;;;;;;2.20;1.80;;;;;;;19.02;84.95;95737.16;4990333;28;20219;-90
2023/08/09 11:16:52;;;;;;;2.45;1.75;;;;;;;19.24;85.57;95753.84;4971986;28;20820;-91
2023/08/09 11:19:21;;;;;;;2.00;1.70;;;;;;;19.36;81.85;95690.41;4970521;28;20210;-90
2023/08/09 11:21:49;;;;;;;2.80;1.90;;;;;;;19.27;80.59;95662.00;4970755;28;20235;-90
2023/08/09 11:24:18;;;;;;;1.80;1.70;;;;;;;19.20;82.37;95695.28;4970644;28;20601;-90
2023/08/09 11:26:46;;;;;;;2.00;1.80;;;;;;;19.05;81.71;95683.72;4963225;28;20193;-91
2023/08/09 11:29:13;;;;;;;2.85;1.75;;;;;;;19.13;83.01;95706.84;4971328;28;20200;-91
2023/08/09 11:31:44;;;;;;;2.10;1.60;;;;;;;19.16;80.13;95648.97;4971064;28;20882;-90
2023/08/09 11:34:12;;;;;;;4.15;1.80;;;;;;;19.32;81.81;95684.84;4970746;28;20292;-90
2023/08/09 11:36:41;;;;;;;2.30;1.83;;;;;;;19.39;80.73;95656.00;4962515;28;20938;-91
2023/08/09 11:39:08;;;;;;;2.20;1.67;;;;;;;19.54;80.38;95648.50;4971107;28;20285;-90
2023/08/09 11:41:42;;;;;;;2.33;1.70;;;;;;;19.45;77.18;95589.78;4971164;28;20224;-90
2023/08/09 11:44:09;;;;;;;4.40;1.80;;;;;;;19.77;75.62;95550.97;4970675;28;20196;-90
2023/08/09 11:46:40;;;;;;;1.88;1.50;;;;;;;20.24;74.89;95534.00;4970368;28;20207;-90
2023/08/09 11:49:07;;;;;;;2.00;1.80;;;;;;;20.65;72.34;95475.25;4970167;28;20259;-90
2023/08/09 11:51:35;;;;;;;2.08;1.75;;;;;;;20.81;68.99;95374.16;4968241;28;20243;-90
2023/08/09 11:54:08;;;;;;;2.03;1.60;;;;;;;20.94;68.34;95354.69;4970170;28;20236;-90
2023/08/09 11:56:47;;;;;;;1.65;1.55;;;;;;;21.19;68.08;95362.75;4970414;28;20196;-90
2023/08/09 11:59:20;;;;;;;2.80;1.65;;;;;;;21.34;66.54;95288.81;4970904;28;20486;-90
2023/08/09 12:02:01;;;;;;;3.47;1.60;;;;;;;21.43;66.62;95310.88;4970192;28;20220;-90
2023/08/09 12:04:29;;;;;;;1.92;1.60;;;;;;;21.36;64.44;95222.03;4970012;28;20627;-91
2023/08/09 12:06:57;;;;;;;1.60;1.50;;;;;;;21.14;64.81;95233.66;4970718;28;20227;-91
2023/08/09 12:09:45;;;;;;;2.00;1.90;;;;;;;21.03;65.48;95258.94;4968567;28;20215;-90
2023/08/09 12:12:13;;;;;;;2.15;1.88;;;;;;;21.00;64.59;95230.63;4973675;28;20215;-90
2023/08/09 12:14:49;;;;;;;1.70;1.40;;;;;;;21.00;65.23;95257.59;4986447;28;20223;-89
2023/08/09 12:17:26;;;;;;;1.90;1.80;;;;;;;20.95;64.82;95234.03;4971225;28;20200;-90
2023/08/09 12:20:01;;;;;;;1.60;1.50;;;;;;;20.99;64.53;95244.75;4969763;28;20838;-90
2023/08/09 12:22:42;;;;;;;2.80;1.98;;;;;;;20.95;64.27;95214.91;4962186;28;20212;-90
2023/08/09 12:25:19;;;;;;;2.17;1.67;;;;;;;20.93;64.41;95236.09;4962249;28;20204;-90
2023/08/09 12:28:03;;;;;;;;;;;;;;;;;;;;;
2023/08/09 12:30:30;;;;;;;2.17;1.67;;;;;;;20.96;64.56;95242.66;4969548;28;20234;-89
2023/08/09 12:32:56;;;;;;;3.60;1.50;;;;;;;21.04;63.38;95195.06;4969928;28;20204;-91
2023/08/09 12:35:23;;;;;;;2.30;2.10;;;;;;;21.23;63.22;95206.75;4969580;28;20203;-90
2023/08/09 12:38:01;;;;;;;1.80;1.70;;;;;;;21.47;60.81;95104.22;4970096;28;20207;-91